»·PEaware :: ASA751 KPDX-KSEA

ASA751 :: KPDX-KSEA

FLIGHT INFORMATION

Flight Status: Arrived
Operator:
Alaska Airlines
More flights by this operator :: More flights under this callsign
Pilot: Jone M. (10385)
Aircraft: BOEING 737-800
(B738)
More flights by this aircraft type
Origin: KPDX Portland Intl
United States
Destination: KSEA Seattle-Tacoma Intl
United States
More flights between these airports :: More routes between these airports
Route: PTLD1 BTG COUGA KRIEG HAWKZ7
File this flight plan on PilotEdge
Remarks: PBN / A1B1C1D1S1S2 DOF / 181014 REG / N539AS OPR / ASA PER / C RMK / TCAS SIMBRIEF
Altitude:
(Current/Filed)
19,000ft
Speed:
(Current/Filed)
360kts
Departed: 14-Oct-18 10:26 AM
Arrived: 14-Oct-18 10:57 AM
Distance/Time
Traveled:
112nm/0:31
Distance/Time
To Go:
Arrived

Flight Plot

Page will automatically refresh every two minutes.

Flight plan parsing failed; only flown route is shown


Map Options




Map Legend


Flown Route
Filed Route
Departure Airport
Arrival Airport
Navaid (VOR, NDB)
Fix

Horizontal Profiles

Position Reports

Time Latitude Longitude Heading Altitude Ground
Speed
14-Oct-18 09:44 45.588839 -122.594838 202 30ft 0kts
14-Oct-18 09:45 45.588839 -122.594838 202 30ft 0kts
14-Oct-18 09:46 45.588839 -122.594838 202 30ft 0kts
14-Oct-18 09:47 45.588839 -122.594838 202 30ft 0kts
14-Oct-18 09:48 45.588839 -122.594838 202 30ft 0kts
14-Oct-18 09:49 45.588839 -122.594838 202 30ft 0kts
14-Oct-18 09:50 45.588839 -122.594838 202 30ft 0kts
14-Oct-18 09:51 45.588839 -122.594838 202 30ft 0kts
14-Oct-18 09:52 45.588839 -122.594838 202 30ft 0kts
14-Oct-18 09:54 45.588839 -122.594838 202 30ft 0kts
14-Oct-18 09:55 45.588839 -122.594838 202 30ft 0kts
14-Oct-18 09:56 45.588839 -122.594838 202 30ft 0kts
14-Oct-18 09:57 45.588839 -122.594838 202 30ft 0kts
14-Oct-18 10:02 45.588839 -122.594837 202 30ft 0kts
14-Oct-18 10:03 45.588839 -122.594837 202 30ft 0kts
14-Oct-18 10:04 45.588839 -122.594837 202 30ft 0kts
14-Oct-18 10:05 45.588839 -122.594837 202 30ft 0kts
14-Oct-18 10:06 45.588839 -122.594837 202 30ft 0kts
14-Oct-18 10:07 45.588839 -122.594837 202 30ft 0kts
14-Oct-18 10:08 45.588839 -122.594837 202 30ft 0kts
14-Oct-18 10:09 45.588839 -122.594837 202 30ft 0kts
14-Oct-18 10:10 45.588839 -122.594837 202 30ft 0kts
14-Oct-18 10:11 45.588839 -122.594837 202 30ft 0kts
14-Oct-18 10:12 45.588839 -122.594837 202 30ft 0kts
14-Oct-18 10:21 45.589571 -122.594432 201 31ft 0kts
14-Oct-18 10:22 45.589571 -122.594432 201 31ft 0kts
14-Oct-18 10:23 45.589562 -122.594440 207 31ft 1kts
14-Oct-18 10:24 45.591049 -122.598392 308 31ft 16kts
14-Oct-18 10:25 45.593663 -122.598623 44 31ft 12kts
14-Oct-18 10:26 45.594407 -122.597578 43 31ft 0kts
14-Oct-18 10:27 45.594407 -122.597578 43 31ft 0kts
14-Oct-18 10:28 45.593624 -122.592623 119 31ft 75kts
14-Oct-18 10:29 45.574045 -122.542869 116 1938ft 166kts
14-Oct-18 10:30 45.558836 -122.468780 84 3652ft 231kts
14-Oct-18 10:31 45.615438 -122.448543 345 7097ft 260kts
14-Oct-18 10:32 45.687287 -122.482626 346 10661ft 280kts
14-Oct-18 10:33 45.761473 -122.518171 346 14023ft 289kts
14-Oct-18 10:34 45.842098 -122.556674 345 15745ft 328kts
14-Oct-18 10:35 45.928030 -122.598047 345 18235ft 341kts
14-Oct-18 10:36 46.003236 -122.634327 345 19405ft 364kts
14-Oct-18 10:37 46.099948 -122.679681 352 19408ft 370kts
14-Oct-18 10:38 46.199302 -122.698768 355 19414ft 364kts
14-Oct-18 10:39 46.294150 -122.717275 355 19420ft 344kts
14-Oct-18 10:40 46.385673 -122.724869 1 19423ft 326kts
14-Oct-18 10:41 46.471984 -122.727824 1 18325ft 324kts
14-Oct-18 10:42 46.558623 -122.730947 1 16648ft 316kts
14-Oct-18 10:43 46.644844 -122.734061 1 14876ft 309kts
14-Oct-18 10:44 46.728755 -122.737099 2 13084ft 303kts
14-Oct-18 10:45 46.806255 -122.711296 37 11470ft 284kts
14-Oct-18 10:46 46.864224 -122.641493 42 10565ft 263kts
14-Oct-18 10:47 46.917225 -122.568189 43 9999ft 263kts
14-Oct-18 10:48 46.969071 -122.489210 44 8536ft 278kts
14-Oct-18 10:49 47.029105 -122.427296 36 7982ft 255kts
14-Oct-18 10:50 47.087500 -122.376628 27 7767ft 258kts
14-Oct-18 10:51 47.142763 -122.352825 11 6518ft 267kts
14-Oct-18 10:52 47.198391 -122.336054 11 5249ft 269kts
14-Oct-18 10:53 47.257435 -122.320748 1 3967ft 248kts
14-Oct-18 10:54 47.307963 -122.319029 358 2850ft 221kts
14-Oct-18 10:55 47.353933 -122.319836 2 2075ft 180kts
14-Oct-18 10:56 47.388315 -122.318532 0 1415ft 149kts
14-Oct-18 10:57 47.420445 -122.318465 0 863ft 149kts
14-Oct-18 10:58 47.450812 -122.317981 359 441ft 83kts
14-Oct-18 10:59 47.458715 -122.317081 26 441ft 9kts
14-Oct-18 11:00 47.460084 -122.314624 81 441ft 17kts
14-Oct-18 11:01 47.460096 -122.307102 92 441ft 19kts
14-Oct-18 11:02 47.456502 -122.306202 180 441ft 25kts
14-Oct-18 11:03 47.451907 -122.306212 180 441ft 23kts
14-Oct-18 11:04 47.447247 -122.304556 139 441ft 12kts

Navigation Log

Ident Type
Flight plan parsing failed, navigation log unavailable